createdAt,value
2023-04-02T00:00:18.855Z,98830.25
2023-04-02T00:02:48.354Z,98838.22
2023-04-02T00:05:45.278Z,98831.91
2023-04-02T00:08:20.898Z,98840.09
2023-04-02T00:10:50.157Z,98841.13
2023-04-02T00:13:28.253Z,98839.22
2023-04-02T00:15:58.248Z,98846.38
2023-04-02T00:18:26.462Z,98852.38
2023-04-02T00:21:05.113Z,98854.06
2023-04-02T00:23:32.458Z,98857.19
2023-04-02T00:25:59.700Z,98866.84
2023-04-02T00:28:26.874Z,98864.13
2023-04-02T00:30:58.472Z,98866.00
2023-04-02T00:33:28.181Z,98868.72
2023-04-02T00:35:57.079Z,98863.94
2023-04-02T00:38:26.634Z,98864.75
2023-04-02T00:40:56.676Z,98869.38
2023-04-02T00:43:25.990Z,98867.28
2023-04-02T00:45:56.566Z,98870.38
2023-04-02T00:48:36.110Z,98875.66
2023-04-02T00:51:16.049Z,98881.28
2023-04-02T00:53:46.248Z,98879.16
2023-04-02T00:56:19.623Z,98887.56
2023-04-02T00:58:51.688Z,98891.53
2023-04-02T01:01:23.420Z,98888.31
2023-04-02T01:03:57.243Z,98898.81
2023-04-02T01:06:29.385Z,98901.34
2023-04-02T01:09:11.377Z,98899.88
2023-04-02T01:12:00.422Z,98899.00
2023-04-02T01:14:39.151Z,98891.69
2023-04-02T01:17:17.643Z,98901.09
2023-04-02T01:20:00.931Z,98905.31
2023-04-02T01:22:34.527Z,98905.88
2023-04-02T01:25:02.888Z,98906.34
2023-04-02T01:27:35.474Z,98898.56
2023-04-02T01:30:06.511Z,98909.00
2023-04-02T01:32:34.711Z,98905.41
2023-04-02T01:35:01.923Z,98906.09
2023-04-02T01:37:38.956Z,98908.81
2023-04-02T01:40:20.226Z,98912.72
2023-04-02T01:42:54.967Z,98918.38
2023-04-02T01:45:24.158Z,98925.69
2023-04-02T01:47:52.173Z,98925.88
2023-04-02T01:50:27.766Z,98938.63
2023-04-02T01:52:57.066Z,98936.13
2023-04-02T01:55:31.348Z,98942.38
2023-04-02T01:58:00.787Z,98953.44
2023-04-02T02:00:31.427Z,98952.88
2023-04-02T02:03:00.953Z,98951.38
2023-04-02T02:05:29.139Z,98952.63
2023-04-02T02:07:58.634Z,98954.47
2023-04-02T02:10:28.959Z,98955.97
2023-04-02T02:12:58.157Z,98953.25
2023-04-02T02:15:25.371Z,98963.31
2023-04-02T02:17:58.706Z,98967.91
2023-04-02T02:20:27.899Z,98974.53
2023-04-02T02:22:56.599Z,98968.53
2023-04-02T02:25:27.839Z,98972.28
2023-04-02T02:28:02.453Z,98978.41
2023-04-02T02:30:34.520Z,98977.00
2023-04-02T02:33:08.211Z,98980.53
2023-04-02T02:35:40.812Z,98983.09
2023-04-02T02:38:27.802Z,98988.69
2023-04-02T02:41:03.958Z,98991.44
2023-04-02T02:43:32.365Z,98993.50
2023-04-02T02:46:01.434Z,99001.00
2023-04-02T02:48:36.093Z,99000.16
2023-04-02T02:51:10.670Z,99003.91
2023-04-02T02:53:48.310Z,99004.38
2023-04-02T02:56:16.106Z,99010.88
2023-04-02T02:58:44.666Z,99013.78
2023-04-02T03:01:30.309Z,99016.84
2023-04-02T03:04:09.808Z,99026.69
2023-04-02T03:06:41.992Z,99031.50
2023-04-02T03:09:17.265Z,99032.31
2023-04-02T03:11:52.353Z,99035.41
2023-04-02T03:14:29.283Z,99024.31
2023-04-02T03:17:03.307Z,99037.25
2023-04-02T03:19:39.844Z,99038.78
2023-04-02T03:22:15.469Z,99043.88
2023-04-02T03:24:52.123Z,99044.22
2023-04-02T03:27:22.855Z,99049.81
2023-04-02T03:30:13.658Z,99053.41
2023-04-02T03:32:43.926Z,99064.78
2023-04-02T03:35:22.158Z,99055.78
2023-04-02T03:37:56.044Z,99057.66
2023-04-02T03:40:28.120Z,99063.44
2023-04-02T03:43:03.815Z,99065.50
2023-04-02T03:45:35.996Z,99068.88
2023-04-02T03:48:09.436Z,99076.75
2023-04-02T03:50:43.651Z,99075.06
2023-04-02T03:53:12.451Z,99083.03
2023-04-02T03:55:42.637Z,99084.91
2023-04-02T03:58:16.138Z,99096.81
2023-04-02T04:00:46.671Z,99097.66
2023-04-02T04:03:16.556Z,99101.41
2023-04-02T04:05:49.830Z,99105.53
2023-04-02T04:08:20.989Z,99116.22
2023-04-02T04:10:52.337Z,99112.47
2023-04-02T04:13:28.895Z,99123.50
2023-04-02T04:16:04.185Z,99119.78
2023-04-02T04:18:39.769Z,99130.00
2023-04-02T04:21:18.938Z,99130.50
2023-04-02T04:23:50.906Z,99135.94
2023-04-02T04:26:24.631Z,99136.75
2023-04-02T04:29:06.976Z,99140.34
2023-04-02T04:31:41.191Z,99139.28
2023-04-02T04:34:15.626Z,99157.94
2023-04-02T04:36:49.585Z,99159.25
2023-04-02T04:39:22.185Z,99162.16
2023-04-02T04:41:52.024Z,99166.72
2023-04-02T04:44:24.705Z,99172.72
2023-04-02T04:47:00.124Z,99179.03
2023-04-02T04:49:33.401Z,99181.75
2023-04-02T04:52:09.061Z,99185.66
2023-04-02T04:54:38.961Z,99201.78
2023-04-02T04:57:21.493Z,99203.47
2023-04-02T04:59:55.567Z,99214.16
2023-04-02T05:02:27.474Z,99213.47
2023-04-02T05:04:55.506Z,99230.59
2023-04-02T05:07:28.449Z,99219.41
2023-04-02T05:10:00.504Z,99223.31
2023-04-02T05:12:34.565Z,99241.75
2023-04-02T05:15:06.132Z,99243.44
2023-04-02T05:17:39.546Z,99230.03
2023-04-02T05:20:14.468Z,99249.19
2023-04-02T05:22:49.229Z,99250.19
2023-04-02T05:25:22.041Z,99256.22
2023-04-02T05:27:56.033Z,99270.66
2023-04-02T05:30:47.658Z,99261.97
2023-04-02T05:33:23.169Z,99270.25
2023-04-02T05:35:57.009Z,99276.88
2023-04-02T05:38:29.086Z,99275.38
2023-04-02T05:41:01.992Z,99279.72
2023-04-02T05:43:34.075Z,99288.34
2023-04-02T05:46:13.481Z,99286.50
2023-04-02T05:48:43.089Z,99296.44
2023-04-02T05:51:18.922Z,99302.88
2023-04-02T05:53:52.506Z,99298.31
2023-04-02T05:56:23.709Z,99302.19
2023-04-02T05:58:52.812Z,99303.03
2023-04-02T06:01:35.400Z,99309.97
2023-04-02T06:04:16.362Z,99316.34
2023-04-02T06:06:49.376Z,99319.22
2023-04-02T06:09:24.250Z,99332.09
2023-04-02T06:12:01.684Z,99325.50
2023-04-02T06:14:30.060Z,99347.84
2023-04-02T06:16:58.140Z,99340.25
2023-04-02T06:19:30.993Z,99353.81
2023-04-02T06:22:08.726Z,99363.78
2023-04-02T06:24:40.166Z,99363.47
2023-04-02T06:27:12.873Z,99367.50
2023-04-02T06:29:44.493Z,99377.00
2023-04-02T06:32:15.893Z,99378.63
2023-04-02T06:34:45.128Z,99387.06
2023-04-02T06:37:23.416Z,99389.69
2023-04-02T06:39:59.040Z,99389.47
2023-04-02T06:42:31.015Z,99405.56
2023-04-02T06:45:23.854Z,99410.88
2023-04-02T06:48:17.101Z,99416.44
2023-04-02T06:50:48.718Z,99424.38
2023-04-02T06:53:21.799Z,99432.34
2023-04-02T06:55:55.000Z,99437.25
2023-04-02T06:58:27.017Z,99446.13
2023-04-02T07:00:55.301Z,99446.13
2023-04-02T07:03:40.308Z,99457.28
2023-04-02T07:06:15.935Z,99460.22
2023-04-02T07:08:43.718Z,99463.13
2023-04-02T07:11:15.192Z,99467.50
2023-04-02T07:13:42.829Z,99477.47
2023-04-02T07:16:15.181Z,99475.94
2023-04-02T07:18:43.296Z,99472.09
2023-04-02T07:21:10.948Z,99478.44
2023-04-02T07:23:38.348Z,99495.69
2023-04-02T07:26:06.785Z,99494.13
2023-04-02T07:28:35.461Z,99503.25
2023-04-02T07:31:02.798Z,99512.88
2023-04-02T07:33:31.096Z,99518.28
2023-04-02T07:35:58.554Z,99516.44
2023-04-02T07:38:25.823Z,99522.00
2023-04-02T07:40:53.390Z,99532.69
2023-04-02T07:43:20.676Z,99537.19
2023-04-02T07:45:50.095Z,99545.31
2023-04-02T07:48:17.292Z,99541.22
2023-04-02T07:50:44.459Z,99553.97
2023-04-02T07:53:26.034Z,99551.19
2023-04-02T07:55:53.477Z,99558.81
2023-04-02T07:58:20.642Z,99562.53
2023-04-02T08:00:49.305Z,99563.94
2023-04-02T08:03:16.516Z,99576.75
2023-04-02T08:06:11.946Z,99578.53
2023-04-02T08:08:55.677Z,99582.06
2023-04-02T08:11:44.175Z,99591.81
2023-04-02T08:14:28.849Z,99593.13
2023-04-02T08:17:16.232Z,99602.13
2023-04-02T08:19:55.238Z,99601.81
2023-04-02T08:22:36.118Z,99611.97
2023-04-02T08:25:24.266Z,99607.47
2023-04-02T08:31:10.298Z,99628.50
2023-04-02T08:33:43.468Z,99635.69
2023-04-02T08:36:29.807Z,99625.72
2023-04-02T08:39:06.776Z,99638.22
2023-04-02T08:42:02.245Z,99646.69
2023-04-02T08:44:46.927Z,99668.94
2023-04-02T08:47:39.823Z,99658.75
2023-04-02T08:50:34.142Z,99669.59
2023-04-02T08:53:19.098Z,99672.47
2023-04-02T08:56:12.984Z,99688.34
2023-04-02T08:59:04.821Z,99679.69
2023-04-02T09:01:55.235Z,99691.59
2023-04-02T09:04:32.104Z,99693.19
2023-04-02T09:07:17.766Z,99706.56
2023-04-02T09:09:58.130Z,99714.19
2023-04-02T09:12:57.718Z,99709.38
2023-04-02T09:15:42.944Z,99717.84
2023-04-02T09:18:25.266Z,99726.56
2023-04-02T09:21:06.895Z,99731.41
2023-04-02T09:23:57.405Z,99732.72
2023-04-02T09:26:59.885Z,99732.78
2023-04-02T09:30:00.150Z,99748.06
2023-04-02T09:36:06.726Z,99754.84
2023-04-02T09:40:13.862Z,99769.88
2023-04-02T09:46:21.959Z,99769.13
2023-04-02T09:48:59.303Z,99774.81
2023-04-02T09:51:41.496Z,99780.94
2023-04-02T09:54:18.318Z,99793.72
2023-04-02T09:57:51.565Z,99793.72
2023-04-02T10:00:54.784Z,99808.13
2023-04-02T10:03:32.275Z,99802.22
2023-04-02T10:09:57.077Z,99813.28
2023-04-02T10:12:51.560Z,99812.66
2023-04-02T10:15:47.199Z,99835.38
2023-04-02T10:19:31.546Z,99832.13
2023-04-02T10:22:27.973Z,99839.81
2023-04-02T10:26:07.514Z,99842.19
2023-04-02T10:29:25.877Z,99865.34
2023-04-02T10:32:14.922Z,99859.44
2023-04-02T10:40:47.911Z,99870.53
2023-04-02T10:46:22.434Z,99873.97
2023-04-02T10:49:03.296Z,99888.78
2023-04-02T10:51:40.775Z,99893.84
2023-04-02T10:54:22.477Z,99897.88
2023-04-02T10:56:52.501Z,99892.16
2023-04-02T10:59:23.344Z,99897.69
2023-04-02T11:01:52.592Z,99912.91
2023-04-02T11:04:25.067Z,99908.44
2023-04-02T11:07:11.154Z,99902.31
2023-04-02T11:09:44.359Z,99914.78
2023-04-02T11:12:20.544Z,99927.09
2023-04-02T11:14:49.351Z,99934.88
2023-04-02T11:17:19.952Z,99934.91
2023-04-02T11:19:47.318Z,99933.66
2023-04-02T11:22:17.651Z,99935.97
2023-04-02T11:24:47.413Z,99943.84
2023-04-02T11:27:25.662Z,99947.69
2023-04-02T11:30:01.390Z,99947.84
2023-04-02T11:32:36.042Z,99953.66
2023-04-02T11:35:24.941Z,99965.97
2023-04-02T11:37:54.773Z,99959.53
2023-04-02T11:40:49.554Z,99962.81
2023-04-02T11:43:51.734Z,99977.16
2023-04-02T11:46:35.236Z,99978.16
2023-04-02T11:49:33.155Z,99976.22
2023-04-02T11:52:11.463Z,99986.63
2023-04-02T11:54:41.063Z,99994.72
2023-04-02T11:57:22.857Z,99990.44
2023-04-02T12:00:05.362Z,99999.72
2023-04-02T12:02:51.973Z,100001.03
2023-04-02T12:05:26.991Z,100006.28
2023-04-02T12:08:19.542Z,100018.13
2023-04-02T12:10:55.805Z,100020.00
2023-04-02T12:13:48.721Z,100011.75
2023-04-02T12:16:16.715Z,100018.47
2023-04-02T12:18:46.010Z,100039.13
2023-04-02T12:21:16.012Z,100038.84
2023-04-02T12:23:46.144Z,100049.94
2023-04-02T12:26:28.833Z,100055.22
2023-04-02T12:29:14.407Z,100042.53
2023-04-02T12:31:43.252Z,100055.78
2023-04-02T12:34:14.681Z,100055.06
2023-04-02T12:36:51.404Z,100058.50
2023-04-02T12:39:18.594Z,100059.88
2023-04-02T12:41:47.474Z,100072.38
2023-04-02T12:44:16.353Z,100076.53
2023-04-02T12:46:44.679Z,100090.94
2023-04-02T12:49:23.421Z,100073.28
2023-04-02T12:51:51.514Z,100104.34
2023-04-02T12:54:19.311Z,100084.91
2023-04-02T12:56:49.034Z,100097.31
2023-04-02T12:59:30.755Z,100099.19
2023-04-02T13:01:59.440Z,100107.13
2023-04-02T13:04:27.050Z,100103.03
2023-04-02T13:06:55.712Z,100101.28
2023-04-02T13:09:30.362Z,100105.50
2023-04-02T13:11:59.166Z,100104.28
2023-04-02T13:14:27.413Z,100104.03
2023-04-02T13:16:54.920Z,100112.31
2023-04-02T13:19:28.280Z,100120.06
2023-04-02T13:21:56.695Z,100117.28
2023-04-02T13:24:25.432Z,100126.16
2023-04-02T13:26:55.133Z,100132.13
2023-04-02T13:29:28.786Z,100144.13
2023-04-02T13:31:58.522Z,100140.94
2023-04-02T13:34:26.421Z,100141.13
2023-04-02T13:36:53.840Z,100142.00
2023-04-02T13:39:21.274Z,100160.50
2023-04-02T13:41:50.890Z,100150.25
2023-04-02T13:44:20.708Z,100164.44
2023-04-02T13:46:49.632Z,100173.09
2023-04-02T13:49:17.184Z,100187.47
2023-04-02T13:51:46.516Z,100160.72
2023-04-02T13:54:23.850Z,100179.25
2023-04-02T13:56:51.294Z,100181.06
2023-04-02T13:59:18.806Z,100187.41
2023-04-02T14:01:47.167Z,100184.78
2023-04-02T14:04:20.801Z,100180.28
2023-04-02T14:07:08.224Z,100178.50
2023-04-02T14:09:45.866Z,100188.53
2023-04-02T14:12:22.688Z,100191.22
2023-04-02T14:15:05.710Z,100200.78
2023-04-02T14:17:41.393Z,100207.50
2023-04-02T14:20:24.906Z,100207.78
2023-04-02T14:23:06.204Z,100208.16
2023-04-02T14:25:42.575Z,100216.41
2023-04-02T14:28:19.902Z,100205.28
2023-04-02T14:30:53.569Z,100213.44
2023-04-02T14:33:31.772Z,100218.94
2023-04-02T14:36:10.085Z,100203.91
2023-04-02T14:38:49.221Z,100244.16
2023-04-02T14:41:22.609Z,100236.53
2023-04-02T14:43:54.366Z,100262.53
2023-04-02T14:46:24.848Z,100224.38
2023-04-02T14:48:56.837Z,100241.06
2023-04-02T14:51:32.893Z,100250.19
2023-04-02T14:54:06.993Z,100244.59
2023-04-02T14:56:40.090Z,100264.69
2023-04-02T14:59:21.903Z,100231.75
2023-04-02T15:01:53.195Z,100256.84
2023-04-02T15:04:25.705Z,100259.81
2023-04-02T15:06:59.657Z,100276.75
2023-04-02T15:09:31.633Z,100265.41
2023-04-02T15:12:03.606Z,100277.41
2023-04-02T15:14:35.154Z,100280.91
2023-04-02T15:17:02.412Z,100276.03
2023-04-02T15:19:29.827Z,100267.28
2023-04-02T15:22:25.013Z,100291.28
2023-04-02T15:25:03.295Z,100299.72
2023-04-02T15:27:45.169Z,100292.13
2023-04-02T15:30:14.614Z,100299.63
2023-04-02T15:32:43.973Z,100314.50
2023-04-02T15:35:21.975Z,100298.25
2023-04-02T15:38:01.373Z,100298.78
2023-04-02T15:40:46.713Z,100308.94
2023-04-02T15:43:21.820Z,100307.91
2023-04-02T15:46:07.845Z,100314.03
2023-04-02T15:49:08.629Z,100321.47
2023-04-02T15:51:48.413Z,100318.72
2023-04-02T15:54:32.962Z,100329.53
2023-04-02T15:57:10.912Z,100333.09
2023-04-02T15:59:59.070Z,100319.69
2023-04-02T16:02:47.766Z,100316.66
2023-04-02T16:05:22.594Z,100343.00
2023-04-02T16:08:08.862Z,100331.50
2023-04-02T16:10:42.573Z,100331.16
2023-04-02T16:13:19.635Z,100328.81
2023-04-02T16:15:53.301Z,100342.53
2023-04-02T16:18:32.830Z,100347.75
2023-04-02T16:21:02.469Z,100355.97
2023-04-02T16:23:33.480Z,100351.09
2023-04-02T16:26:10.689Z,100359.31
2023-04-02T16:28:46.058Z,100359.47
2023-04-02T16:31:20.387Z,100361.38
2023-04-02T16:34:00.155Z,100376.38
2023-04-02T16:36:42.383Z,100376.03
2023-04-02T16:39:20.031Z,100369.03
2023-04-02T16:41:59.782Z,100376.44
2023-04-02T16:44:36.485Z,100374.72
2023-04-02T16:47:18.207Z,100386.13
2023-04-02T16:49:52.107Z,100381.72
2023-04-02T16:52:40.418Z,100385.25
2023-04-02T16:55:25.704Z,100393.75
2023-04-02T16:58:06.458Z,100385.34
2023-04-02T17:00:41.064Z,100404.44
2023-04-02T17:03:31.671Z,100400.13
2023-04-02T17:06:04.567Z,100404.44
2023-04-02T17:08:39.038Z,100407.00
2023-04-02T17:11:07.640Z,100408.97
2023-04-02T17:13:40.177Z,100418.94
2023-04-02T17:16:16.761Z,100414.97
2023-04-02T17:18:46.845Z,100436.59
2023-04-02T17:21:17.397Z,100415.97
2023-04-02T17:23:55.891Z,100436.25
2023-04-02T17:26:27.735Z,100426.91
2023-04-02T17:29:00.802Z,100448.91
2023-04-02T17:31:31.293Z,100454.66
2023-04-02T17:33:58.449Z,100458.59
2023-04-02T17:36:33.642Z,100465.81
2023-04-02T17:39:10.941Z,100480.72
2023-04-02T17:41:43.535Z,100473.06
2023-04-02T17:44:28.333Z,100472.47
2023-04-02T17:47:05.295Z,100483.41
2023-04-02T17:49:39.650Z,100476.38
2023-04-02T17:52:15.564Z,100487.44
2023-04-02T17:54:52.854Z,100486.47
2023-04-02T17:57:34.807Z,100489.88
2023-04-02T18:00:21.819Z,100504.25
2023-04-02T18:03:07.222Z,100514.34
2023-04-02T18:05:42.297Z,100523.28
2023-04-02T18:08:16.861Z,100532.63
2023-04-02T18:10:51.797Z,100532.28
2023-04-02T18:13:27.326Z,100529.69
2023-04-02T18:16:13.491Z,100543.78
2023-04-02T18:18:54.922Z,100543.41
2023-04-02T18:21:29.174Z,100545.84
2023-04-02T18:24:13.078Z,100550.69
2023-04-02T18:26:50.775Z,100554.34
2023-04-02T18:29:29.712Z,100559.75
2023-04-02T18:32:10.624Z,100563.81
2023-04-02T18:34:51.168Z,100565.91
2023-04-02T18:37:28.814Z,100575.94
2023-04-02T18:40:11.580Z,100572.69
2023-04-02T18:42:50.189Z,100577.59
2023-04-02T18:45:24.563Z,100578.53
2023-04-02T18:48:00.861Z,100576.09
2023-04-02T18:50:31.799Z,100583.94
2023-04-02T18:53:01.764Z,100585.41
2023-04-02T18:55:31.201Z,100584.69
2023-04-02T18:58:02.639Z,100597.06
2023-04-02T19:00:32.765Z,100594.00
2023-04-02T19:03:07.152Z,100598.09
2023-04-02T19:05:43.207Z,100603.34
2023-04-02T19:08:16.386Z,100607.53
2023-04-02T19:10:45.077Z,100610.84
2023-04-02T19:13:14.644Z,100624.72
2023-04-02T19:15:55.059Z,100607.53
2023-04-02T19:18:35.783Z,100616.72
2023-04-02T19:21:11.759Z,100611.06
2023-04-02T19:23:54.672Z,100617.22
2023-04-02T19:26:29.984Z,100622.00
2023-04-02T19:29:10.786Z,100619.66
2023-04-02T19:31:48.422Z,100612.25
2023-04-02T19:34:24.627Z,100618.00
2023-04-02T19:36:55.763Z,100627.09
2023-04-02T19:40:02.915Z,100613.06
2023-04-02T19:42:43.240Z,100624.56
2023-04-02T19:45:33.325Z,100619.44
2023-04-02T19:48:08.538Z,100621.72
2023-04-02T19:50:37.390Z,100615.13
2023-04-02T19:53:04.669Z,100626.59
2023-04-02T19:55:31.899Z,100623.59
2023-04-02T19:58:08.974Z,100628.75
2023-04-02T20:00:44.754Z,100631.25
2023-04-02T20:03:11.933Z,100633.97
2023-04-02T20:05:40.439Z,100637.00
2023-04-02T20:08:07.686Z,100643.81
2023-04-02T20:10:35.044Z,100637.94
2023-04-02T20:13:02.487Z,100643.34
2023-04-02T20:15:29.742Z,100644.09
2023-04-02T20:17:57.054Z,100654.75
2023-04-02T20:20:24.387Z,100656.63
2023-04-02T20:22:52.917Z,100662.63
2023-04-02T20:25:20.092Z,100654.34
2023-04-02T20:27:47.332Z,100655.84
2023-04-02T20:30:14.822Z,100656.19
2023-04-02T20:32:42.109Z,100665.56
2023-04-02T20:35:09.609Z,100668.59
2023-04-02T20:37:36.808Z,100661.69
2023-04-02T20:40:06.705Z,100659.53
2023-04-02T20:42:34.052Z,100676.88
2023-04-02T20:45:01.187Z,100674.94
2023-04-02T20:47:28.384Z,100678.84
2023-04-02T20:49:55.524Z,100683.25
2023-04-02T20:52:22.723Z,100680.03
2023-04-02T20:54:50.406Z,100686.59
2023-04-02T20:57:18.911Z,100691.34
2023-04-02T20:59:46.095Z,100692.19
2023-04-02T21:02:13.403Z,100694.25
2023-04-02T21:04:40.547Z,100692.44
2023-04-02T21:07:07.770Z,100691.09
2023-04-02T21:09:34.923Z,100695.31
2023-04-02T21:12:02.156Z,100699.88
2023-04-02T21:14:30.712Z,100707.09
2023-04-02T21:16:57.950Z,100708.69
2023-04-02T21:19:25.157Z,100704.50
2023-04-02T21:21:54.911Z,100715.09
2023-04-02T21:24:22.093Z,100708.03
2023-04-02T21:26:50.518Z,100711.31
2023-04-02T21:29:18.074Z,100716.34
2023-04-02T21:31:46.652Z,100709.03
2023-04-02T21:34:16.425Z,100713.13
2023-04-02T21:36:45.226Z,100716.03
2023-04-02T21:39:17.130Z,100712.81
2023-04-02T21:41:45.825Z,100723.59
2023-04-02T21:44:14.753Z,100714.22
2023-04-02T21:46:42.986Z,100710.22
2023-04-02T21:49:12.991Z,100720.78
2023-04-02T21:51:42.100Z,100716.81
2023-04-02T21:54:09.637Z,100720.00
2023-04-02T21:56:38.339Z,100724.75
2023-04-02T21:59:07.272Z,100721.63
2023-04-02T22:01:37.165Z,100723.47
2023-04-02T22:04:06.324Z,100729.28
2023-04-02T22:06:38.218Z,100721.09
2023-04-02T22:09:06.289Z,100714.09
2023-04-02T22:11:35.942Z,100731.84
2023-04-02T22:14:03.684Z,100732.63
2023-04-02T22:16:32.790Z,100728.19
2023-04-02T22:19:01.921Z,100729.47
2023-04-02T22:21:30.238Z,100730.03
2023-04-02T22:24:01.238Z,100735.06
2023-04-02T22:26:28.712Z,100731.84
2023-04-02T22:28:56.054Z,100733.34
2023-04-02T22:31:25.698Z,100733.69
2023-04-02T22:33:54.758Z,100730.13
2023-04-02T22:36:23.361Z,100728.50
2023-04-02T22:38:50.556Z,100733.44
2023-04-02T22:41:20.966Z,100722.13
2023-04-02T22:43:49.731Z,100732.69
2023-04-02T22:46:18.873Z,100730.75
2023-04-02T22:48:47.382Z,100729.59
2023-04-02T22:51:16.824Z,100721.84
2023-04-02T22:53:44.011Z,100732.28
2023-04-02T22:56:13.500Z,100729.59
2023-04-02T22:58:42.373Z,100741.47
2023-04-02T23:01:12.147Z,100736.72
2023-04-02T23:03:39.555Z,100739.75
2023-04-02T23:06:09.229Z,100748.28
2023-04-02T23:08:37.637Z,100748.06
2023-04-02T23:11:06.942Z,100743.41
2023-04-02T23:13:35.015Z,100755.81
2023-04-02T23:16:06.802Z,100750.88
2023-04-02T23:18:35.749Z,100749.06
2023-04-02T23:21:04.282Z,100750.22
2023-04-02T23:23:32.268Z,100752.16
2023-04-02T23:26:03.751Z,100757.25
2023-04-02T23:28:30.915Z,100751.66
2023-04-02T23:30:58.056Z,100752.38
2023-04-02T23:33:26.633Z,100750.22
2023-04-02T23:35:53.873Z,100759.81
2023-04-02T23:38:21.101Z,100761.22
2023-04-02T23:40:48.241Z,100751.41
2023-04-02T23:43:15.435Z,100757.00
2023-04-02T23:45:47.023Z,100758.31
2023-04-02T23:48:14.439Z,100754.75
2023-04-02T23:50:43.879Z,100754.53
2023-04-02T23:53:11.052Z,100753.25
2023-04-02T23:55:38.489Z,100754.00
2023-04-02T23:58:05.678Z,100755.38
